aviador You're here:

LFMT Decoded Metar

MONTPELLIER in FRANCE
Report Time2018-06-17 21:30:00
UTC Time2018-06-17 21:55:59
Flight Rules vfr VFR
Wind300° at 11 kt
W.Decomp.*RWY 30: 11.0 kt HW 0 kt LCW
W.Rank300° ranks 3
Current wind is above 300° avg. (10.3)
Visibility9999 m
Phenomena:N/A
Clouds:N/A
Expected CloudBase > 5,200 ft AGL from Temp-Dew spread
CeilingNone
Temp22°C (ISA +7)
Dew Point09°C (44% RH)
AAT17.9°C
QNH1019 hPa
Density Alt794 ft
Elevation20 ft
Report Wrong Elevation
Raw Report
LFMT 172130Z AUTO 30011KT CAVOK 22/09 Q1019 TEMPO 32020G30KT=

Extra information for LFMT:More info

Metar Taf Metar & Taf Last 4 Metars F.Rules Stats Wind Profile Meteogram Temp Stats Airport Information Weather charts Add Link Nearby VenuesMetar ALERT Operation Metar Decoded Social comments